createdAt,value
2022-11-26T00:00:30.513Z,3.48
2022-11-26T00:02:57.171Z,3.34
2022-11-26T00:05:24.616Z,3.41
2022-11-26T00:07:56.600Z,3.10
2022-11-26T00:10:26.909Z,2.92
2022-11-26T00:12:53.836Z,2.86
2022-11-26T00:15:26.886Z,2.87
2022-11-26T00:17:53.990Z,2.91
2022-11-26T00:20:23.415Z,3.05
2022-11-26T00:22:53.255Z,3.09
2022-11-26T00:25:22.578Z,3.14
2022-11-26T00:27:50.405Z,3.25
2022-11-26T00:30:22.820Z,3.02
2022-11-26T00:32:49.712Z,2.72
2022-11-26T00:35:16.693Z,2.51
2022-11-26T00:37:47.517Z,2.35
2022-11-26T00:40:33.603Z,2.38
2022-11-26T00:43:01.940Z,2.62
2022-11-26T00:45:30.874Z,2.46
2022-11-26T00:47:57.496Z,2.49
2022-11-26T00:50:27.503Z,2.36
2022-11-26T00:52:56.634Z,2.27
2022-11-26T00:55:31.540Z,2.44
2022-11-26T00:57:58.430Z,2.35
2022-11-26T01:00:28.013Z,2.49
2022-11-26T01:02:55.523Z,2.34
2022-11-26T01:05:24.465Z,2.34
2022-11-26T01:07:52.601Z,2.16
2022-11-26T01:10:23.336Z,2.25
2022-11-26T01:12:51.140Z,2.27
2022-11-26T01:15:19.087Z,2.23
2022-11-26T01:17:45.988Z,2.28
2022-11-26T01:20:25.807Z,2.35
2022-11-26T01:22:53.908Z,2.33
2022-11-26T01:25:21.271Z,2.37
2022-11-26T01:27:48.000Z,2.50
2022-11-26T01:30:26.086Z,2.46
2022-11-26T01:32:53.682Z,2.46
2022-11-26T01:35:21.377Z,2.53
2022-11-26T01:37:48.633Z,2.55
2022-11-26T01:40:27.040Z,2.48
2022-11-26T01:42:59.184Z,2.35
2022-11-26T01:45:25.896Z,2.27
2022-11-26T01:47:52.445Z,2.26
2022-11-26T01:50:28.071Z,2.39
2022-11-26T01:52:59.537Z,2.42
2022-11-26T01:55:38.328Z,2.36
2022-11-26T01:58:07.384Z,2.37
2022-11-26T02:00:33.918Z,2.12
2022-11-26T02:03:01.368Z,2.35
2022-11-26T02:05:31.468Z,2.38
2022-11-26T02:07:58.135Z,2.43
2022-11-26T02:10:24.720Z,2.46
2022-11-26T02:12:51.614Z,2.30
2022-11-26T02:15:18.194Z,2.31
2022-11-26T02:17:57.989Z,2.25
2022-11-26T02:20:33.693Z,2.29
2022-11-26T02:23:06.238Z,2.42
2022-11-26T02:25:57.144Z,2.63
2022-11-26T02:28:23.644Z,2.70
2022-11-26T02:30:58.985Z,2.61
2022-11-26T02:33:41.765Z,2.56
2022-11-26T02:36:15.090Z,2.45
2022-11-26T02:38:41.580Z,2.39
2022-11-26T02:41:09.016Z,2.46
2022-11-26T02:43:37.171Z,2.54
2022-11-26T02:46:12.403Z,2.45
2022-11-26T02:48:44.433Z,2.45
2022-11-26T02:51:28.376Z,2.37
2022-11-26T02:53:58.769Z,2.33
2022-11-26T02:56:27.694Z,2.37
2022-11-26T02:58:56.595Z,2.39
2022-11-26T03:01:31.786Z,2.37
2022-11-26T03:04:03.570Z,2.17
2022-11-26T03:06:32.786Z,2.23
2022-11-26T03:08:59.312Z,2.18
2022-11-26T03:11:26.113Z,2.19
2022-11-26T03:13:52.597Z,2.09
2022-11-26T03:16:19.317Z,2.10
2022-11-26T03:18:45.831Z,2.10
2022-11-26T03:21:12.280Z,2.06
2022-11-26T03:23:38.707Z,2.06
2022-11-26T03:26:05.246Z,1.96
2022-11-26T03:28:31.661Z,1.92
2022-11-26T03:30:58.379Z,1.89
2022-11-26T03:33:24.814Z,1.79
2022-11-26T03:35:51.329Z,1.82
2022-11-26T03:38:17.857Z,1.77
2022-11-26T03:40:44.449Z,1.77
2022-11-26T03:43:10.914Z,1.75
2022-11-26T03:45:37.474Z,1.72
2022-11-26T03:48:04.136Z,1.68
2022-11-26T03:50:30.635Z,1.65
2022-11-26T03:52:57.040Z,1.54
2022-11-26T03:55:23.474Z,1.36
2022-11-26T03:57:50.007Z,1.20
2022-11-26T04:00:17.561Z,1.20
2022-11-26T04:02:44.024Z,1.26
2022-11-26T04:05:10.610Z,1.25
2022-11-26T04:07:37.154Z,1.29
2022-11-26T04:10:04.235Z,1.34
2022-11-26T04:12:30.730Z,1.36
2022-11-26T04:14:57.177Z,1.37
2022-11-26T04:17:23.636Z,1.38
2022-11-26T04:19:50.088Z,1.34
2022-11-26T04:22:16.604Z,1.20
2022-11-26T04:24:43.044Z,1.10
2022-11-26T04:27:09.484Z,1.02
2022-11-26T04:29:37.395Z,1.04
2022-11-26T04:32:04.877Z,1.00
2022-11-26T04:34:32.745Z,0.99
2022-11-26T04:36:59.184Z,0.92
2022-11-26T04:39:25.654Z,0.77
2022-11-26T04:41:52.172Z,0.79
2022-11-26T04:44:18.664Z,0.77
2022-11-26T04:46:45.296Z,0.76
2022-11-26T04:49:11.755Z,0.73
2022-11-26T04:51:38.214Z,0.88
2022-11-26T04:54:08.602Z,0.75
2022-11-26T04:56:37.938Z,0.79
2022-11-26T04:59:04.407Z,0.82
2022-11-26T05:01:31.306Z,0.78
2022-11-26T05:03:57.958Z,0.78
2022-11-26T05:06:25.504Z,0.69
2022-11-26T05:08:51.965Z,0.68
2022-11-26T05:11:18.549Z,0.67
2022-11-26T05:13:45.010Z,0.61
2022-11-26T05:16:11.432Z,0.62
2022-11-26T05:18:37.961Z,0.70
2022-11-26T05:21:05.954Z,0.72
2022-11-26T05:23:32.575Z,0.63
2022-11-26T05:25:59.019Z,0.75
2022-11-26T05:28:25.529Z,0.57
2022-11-26T05:31:02.766Z,0.24
2022-11-26T05:33:30.074Z,0.46
2022-11-26T05:35:56.708Z,0.54
2022-11-26T05:38:23.555Z,0.57
2022-11-26T05:40:50.401Z,0.50
2022-11-26T05:43:17.242Z,0.58
2022-11-26T05:45:44.078Z,0.49
2022-11-26T05:48:10.614Z,0.47
2022-11-26T05:50:37.092Z,0.40
2022-11-26T05:53:03.707Z,0.41
2022-11-26T05:55:30.552Z,0.45
2022-11-26T05:57:57.155Z,0.40
2022-11-26T06:00:23.665Z,0.43
2022-11-26T06:02:50.241Z,0.48
2022-11-26T06:05:16.893Z,0.44
2022-11-26T06:07:44.941Z,0.45
2022-11-26T06:10:13.265Z,0.42
2022-11-26T06:12:39.734Z,0.35
2022-11-26T06:15:06.675Z,0.41
2022-11-26T06:17:33.103Z,0.40
2022-11-26T06:19:59.934Z,0.31
2022-11-26T06:22:26.363Z,0.27
2022-11-26T06:24:52.803Z,0.28
2022-11-26T06:27:19.349Z,0.35
2022-11-26T06:29:45.767Z,0.45
2022-11-26T06:32:12.275Z,0.49
2022-11-26T06:34:39.172Z,0.49
2022-11-26T06:37:06.177Z,0.54
2022-11-26T06:39:32.606Z,0.59
2022-11-26T06:41:59.069Z,0.68
2022-11-26T06:44:25.550Z,0.71
2022-11-26T06:46:52.015Z,0.56
2022-11-26T06:49:18.495Z,0.65
2022-11-26T06:51:44.925Z,0.77
2022-11-26T06:54:11.422Z,0.77
2022-11-26T06:56:39.330Z,0.92
2022-11-26T06:59:05.783Z,0.89
2022-11-26T07:01:32.286Z,0.75
2022-11-26T07:03:59.296Z,0.87
2022-11-26T07:06:28.219Z,0.93
2022-11-26T07:08:56.905Z,0.83
2022-11-26T07:11:25.595Z,0.81
2022-11-26T07:13:52.460Z,0.79
2022-11-26T07:16:19.007Z,0.98
2022-11-26T07:18:50.495Z,1.06
2022-11-26T07:21:17.432Z,1.04
2022-11-26T07:23:44.035Z,1.05
2022-11-26T07:26:11.989Z,1.10
2022-11-26T07:28:38.553Z,1.14
2022-11-26T07:31:13.068Z,1.24
2022-11-26T07:33:44.118Z,1.30
2022-11-26T07:36:19.623Z,1.15
2022-11-26T07:38:46.426Z,1.16
2022-11-26T07:41:16.201Z,1.22
2022-11-26T07:43:43.620Z,1.31
2022-11-26T07:46:12.864Z,1.42
2022-11-26T07:48:41.584Z,1.40
2022-11-26T07:51:16.361Z,2.17
2022-11-26T07:53:42.790Z,3.21
2022-11-26T07:56:09.238Z,3.41
2022-11-26T07:58:36.334Z,3.91
2022-11-26T08:01:16.679Z,4.25
2022-11-26T08:03:46.641Z,4.51
2022-11-26T08:06:17.230Z,4.12
2022-11-26T08:08:43.689Z,3.93
2022-11-26T08:11:16.623Z,3.56
2022-11-26T08:13:43.827Z,3.32
2022-11-26T08:16:11.485Z,3.28
2022-11-26T08:18:38.536Z,3.14
2022-11-26T08:21:05.895Z,2.98
2022-11-26T08:23:33.215Z,2.90
2022-11-26T08:26:22.520Z,2.85
2022-11-26T08:28:51.440Z,2.77
2022-11-26T08:31:18.012Z,2.76
2022-11-26T08:33:45.174Z,2.75
2022-11-26T08:36:12.137Z,2.69
2022-11-26T08:38:39.433Z,2.62
2022-11-26T08:41:12.791Z,2.57
2022-11-26T08:44:05.201Z,2.60
2022-11-26T08:46:26.925Z,2.68
2022-11-26T08:48:56.328Z,2.70
2022-11-26T08:51:23.144Z,2.77
2022-11-26T08:53:49.595Z,2.89
2022-11-26T08:56:15.989Z,2.94
2022-11-26T08:58:48.511Z,3.04
2022-11-26T09:01:16.474Z,3.11
2022-11-26T09:03:43.596Z,3.13
2022-11-26T09:06:10.777Z,3.19
2022-11-26T09:08:56.908Z,3.15
2022-11-26T09:11:25.368Z,3.24
2022-11-26T09:13:53.405Z,3.27
2022-11-26T09:16:21.512Z,3.43
2022-11-26T09:18:48.166Z,3.48
2022-11-26T09:21:14.693Z,3.53
2022-11-26T09:23:41.114Z,3.57
2022-11-26T09:26:07.554Z,3.55
2022-11-26T09:28:34.033Z,3.62
2022-11-26T09:31:01.468Z,3.70
2022-11-26T09:33:29.227Z,3.74
2022-11-26T09:36:07.230Z,3.78
2022-11-26T09:38:35.416Z,3.88
2022-11-26T09:41:29.509Z,3.90
2022-11-26T09:44:02.110Z,3.83
2022-11-26T09:46:45.481Z,3.87
2022-11-26T09:49:22.320Z,3.94
2022-11-26T09:51:53.396Z,4.01
2022-11-26T09:54:23.572Z,4.08
2022-11-26T09:56:54.837Z,4.15
2022-11-26T09:59:22.441Z,4.20
2022-11-26T10:01:48.918Z,4.24
2022-11-26T10:04:29.774Z,4.28
2022-11-26T10:07:44.182Z,4.32
2022-11-26T10:10:26.914Z,4.38
2022-11-26T10:13:20.662Z,4.43
2022-11-26T10:16:10.796Z,4.42
2022-11-26T10:18:46.920Z,4.51
2022-11-26T10:21:58.038Z,4.58
2022-11-26T10:24:30.553Z,4.60
2022-11-26T10:27:00.126Z,4.63
2022-11-26T10:29:42.685Z,4.64
2022-11-26T10:32:20.605Z,4.68
2022-11-26T10:34:55.234Z,4.65
2022-11-26T10:37:23.888Z,4.72
2022-11-26T10:40:00.076Z,4.72
2022-11-26T10:42:43.227Z,4.71
2022-11-26T10:45:28.457Z,4.75
2022-11-26T10:48:16.027Z,4.79
2022-11-26T10:50:54.225Z,4.76
2022-11-26T10:53:23.292Z,4.78
2022-11-26T10:55:51.843Z,4.77
2022-11-26T10:58:25.411Z,4.71
2022-11-26T11:00:51.912Z,4.67
2022-11-26T11:03:59.337Z,4.65
2022-11-26T11:06:23.662Z,4.71
2022-11-26T11:08:51.970Z,4.82
2022-11-26T11:11:27.467Z,4.84
2022-11-26T11:13:54.910Z,4.88
2022-11-26T11:16:26.406Z,4.88
2022-11-26T11:19:02.108Z,4.88
2022-11-26T11:21:34.207Z,4.91
2022-11-26T11:24:20.994Z,4.92
2022-11-26T11:26:53.408Z,4.96
2022-11-26T11:29:28.978Z,4.99
2022-11-26T11:31:57.420Z,4.96
2022-11-26T11:34:44.714Z,4.99
2022-11-26T11:37:22.881Z,5.01
2022-11-26T11:40:05.083Z,5.01
2022-11-26T11:42:32.308Z,4.98
2022-11-26T11:45:00.645Z,5.09
2022-11-26T11:47:43.509Z,5.08
2022-11-26T11:50:50.255Z,5.06
2022-11-26T11:53:46.922Z,4.99
2022-11-26T11:56:44.234Z,4.97
2022-11-26T11:59:17.526Z,5.16
2022-11-26T12:02:37.436Z,5.19
2022-11-26T12:05:31.228Z,5.19
2022-11-26T12:08:07.352Z,5.19
2022-11-26T12:10:43.641Z,5.19
2022-11-26T12:13:13.929Z,5.23
2022-11-26T12:15:52.184Z,5.23
2022-11-26T12:18:37.177Z,5.24
2022-11-26T12:21:09.625Z,5.28
2022-11-26T12:23:55.004Z,5.28
2022-11-26T12:26:30.857Z,5.26
2022-11-26T12:29:02.773Z,5.31
2022-11-26T12:31:38.756Z,5.29
2022-11-26T12:34:12.696Z,5.26
2022-11-26T12:36:39.066Z,5.26
2022-11-26T12:39:19.827Z,5.29
2022-11-26T12:42:02.640Z,5.27
2022-11-26T12:44:36.230Z,5.29
2022-11-26T12:47:20.664Z,5.25
2022-11-26T12:50:12.830Z,5.29
2022-11-26T12:52:52.542Z,5.34
2022-11-26T12:55:28.620Z,5.34
2022-11-26T12:58:09.940Z,5.32
2022-11-26T13:00:36.891Z,5.31
2022-11-26T13:03:05.797Z,5.34
2022-11-26T13:05:52.296Z,5.30
2022-11-26T13:08:24.509Z,5.29
2022-11-26T13:11:26.919Z,5.32
2022-11-26T13:13:59.812Z,5.36
2022-11-26T13:16:38.947Z,5.34
2022-11-26T13:19:34.927Z,5.33
2022-11-26T13:22:20.194Z,5.39
2022-11-26T13:25:26.770Z,5.33
2022-11-26T13:28:26.910Z,5.32
2022-11-26T13:31:30.090Z,5.34
2022-11-26T13:34:02.404Z,5.31
2022-11-26T13:37:03.957Z,5.28
2022-11-26T13:39:56.164Z,5.25
2022-11-26T13:42:58.042Z,5.29
2022-11-26T13:46:06.262Z,5.29
2022-11-26T13:48:57.357Z,5.32
2022-11-26T13:51:50.617Z,5.31
2022-11-26T13:54:40.891Z,5.28
2022-11-26T13:57:17.013Z,5.35
2022-11-26T13:59:49.868Z,5.32
2022-11-26T14:02:35.261Z,5.35
2022-11-26T14:05:05.903Z,5.35
2022-11-26T14:07:32.806Z,5.37
2022-11-26T14:10:07.445Z,5.37
2022-11-26T14:13:11.893Z,5.30
2022-11-26T14:15:41.391Z,5.17
2022-11-26T14:18:13.523Z,5.20
2022-11-26T14:20:58.113Z,5.21
2022-11-26T14:23:40.878Z,5.26
2022-11-26T14:26:10.361Z,5.29
2022-11-26T14:28:36.961Z,5.17
2022-11-26T14:31:23.817Z,5.26
2022-11-26T14:33:54.612Z,5.26
2022-11-26T14:36:29.647Z,5.16
2022-11-26T14:39:12.932Z,5.36
2022-11-26T14:41:42.642Z,5.34
2022-11-26T14:44:14.188Z,5.36
2022-11-26T14:46:42.802Z,5.37
2022-11-26T14:49:32.085Z,5.36
2022-11-26T14:52:00.387Z,5.29
2022-11-26T14:54:39.924Z,5.31
2022-11-26T14:57:13.397Z,5.20
2022-11-26T15:00:00.611Z,5.26
2022-11-26T15:02:29.529Z,5.31
2022-11-26T15:05:16.024Z,5.31
2022-11-26T15:07:42.610Z,5.28
2022-11-26T15:10:14.885Z,5.26
2022-11-26T15:12:43.773Z,5.22
2022-11-26T15:15:17.311Z,5.22
2022-11-26T15:17:49.030Z,5.19
2022-11-26T15:20:17.718Z,5.17
2022-11-26T15:22:50.445Z,5.21
2022-11-26T15:25:24.964Z,5.14
2022-11-26T15:27:53.637Z,5.16
2022-11-26T15:30:20.473Z,5.14
2022-11-26T15:32:47.247Z,5.09
2022-11-26T15:35:15.635Z,5.05
2022-11-26T15:37:42.349Z,5.08
2022-11-26T15:40:31.565Z,5.03
2022-11-26T15:43:02.218Z,5.05
2022-11-26T15:45:40.430Z,5.04
2022-11-26T15:48:50.005Z,5.01
2022-11-26T15:51:15.635Z,5.08
2022-11-26T15:53:47.814Z,5.02
2022-11-26T15:56:24.906Z,5.01
2022-11-26T15:58:58.689Z,4.99
2022-11-26T16:01:31.493Z,4.95
2022-11-26T16:04:06.350Z,4.94
2022-11-26T16:06:38.982Z,4.93
2022-11-26T16:09:14.908Z,4.90
2022-11-26T16:11:57.283Z,4.92
2022-11-26T16:14:35.415Z,4.89
2022-11-26T16:17:22.228Z,4.92
2022-11-26T16:19:54.362Z,4.71
2022-11-26T16:22:27.073Z,4.82
2022-11-26T16:25:20.801Z,4.76
2022-11-26T16:28:11.980Z,4.73
2022-11-26T16:30:40.409Z,4.71
2022-11-26T16:33:08.246Z,4.78
2022-11-26T16:35:50.176Z,4.77
2022-11-26T16:38:25.443Z,4.71
2022-11-26T16:40:52.271Z,4.74
2022-11-26T16:43:19.058Z,4.67
2022-11-26T16:45:46.302Z,4.56
2022-11-26T16:48:26.402Z,4.63
2022-11-26T16:50:56.392Z,4.63
2022-11-26T16:53:23.483Z,4.61
2022-11-26T16:55:50.968Z,4.54
2022-11-26T16:58:32.785Z,4.45
2022-11-26T17:00:59.558Z,4.48
2022-11-26T17:03:27.888Z,4.55
2022-11-26T17:05:58.312Z,4.57
2022-11-26T17:08:24.719Z,4.60
2022-11-26T17:10:51.388Z,4.54
2022-11-26T17:13:21.323Z,4.41
2022-11-26T17:15:49.233Z,4.52
2022-11-26T17:18:23.891Z,4.51
2022-11-26T17:20:51.762Z,4.48
2022-11-26T17:23:18.268Z,4.50
2022-11-26T17:25:48.472Z,4.50
2022-11-26T17:28:15.994Z,4.51
2022-11-26T17:30:44.174Z,4.50
2022-11-26T17:33:11.412Z,4.47
2022-11-26T17:35:38.338Z,4.51
2022-11-26T17:38:20.879Z,4.47
2022-11-26T17:40:48.292Z,4.37
2022-11-26T17:43:14.844Z,4.37
2022-11-26T17:45:41.823Z,4.41
2022-11-26T17:48:13.277Z,4.42
2022-11-26T17:50:40.381Z,4.44
2022-11-26T17:53:06.989Z,4.40
2022-11-26T17:55:33.656Z,4.45
2022-11-26T17:58:00.153Z,4.41
2022-11-26T18:00:28.916Z,4.42
2022-11-26T18:02:56.087Z,4.37
2022-11-26T18:05:22.793Z,4.44
2022-11-26T18:07:49.948Z,4.40
2022-11-26T18:10:18.306Z,4.35
2022-11-26T18:12:45.228Z,4.38
2022-11-26T18:15:23.710Z,4.37
2022-11-26T18:17:52.174Z,4.33
2022-11-26T18:20:21.407Z,4.34
2022-11-26T18:22:55.957Z,5.20
2022-11-26T18:25:22.880Z,5.91
2022-11-26T18:27:49.312Z,6.43
2022-11-26T18:30:16.939Z,6.98
2022-11-26T18:32:44.161Z,7.26
2022-11-26T18:35:11.553Z,6.80
2022-11-26T18:37:39.845Z,6.44
2022-11-26T18:40:08.590Z,5.82
2022-11-26T18:42:37.465Z,5.46
2022-11-26T18:45:06.320Z,5.21
2022-11-26T18:47:33.157Z,5.04
2022-11-26T18:49:59.687Z,4.95
2022-11-26T18:52:26.441Z,4.72
2022-11-26T18:54:52.963Z,4.64
2022-11-26T18:57:19.557Z,4.44
2022-11-26T18:59:47.295Z,4.44
2022-11-26T19:02:13.835Z,4.30
2022-11-26T19:04:40.475Z,4.33
2022-11-26T19:07:07.057Z,4.16
2022-11-26T19:09:33.493Z,4.12
2022-11-26T19:11:59.976Z,4.22
2022-11-26T19:14:26.769Z,4.06
2022-11-26T19:16:53.368Z,4.08
2022-11-26T19:19:20.303Z,3.97
2022-11-26T19:21:47.448Z,4.08
2022-11-26T19:24:14.911Z,4.07
2022-11-26T19:26:42.062Z,3.96
2022-11-26T19:29:11.127Z,3.94
2022-11-26T19:31:39.629Z,4.03
2022-11-26T19:34:10.254Z,3.95
2022-11-26T19:36:37.313Z,4.54
2022-11-26T19:39:05.283Z,5.29
2022-11-26T19:41:32.586Z,5.80
2022-11-26T19:44:00.698Z,5.57
2022-11-26T19:46:27.868Z,5.34
2022-11-26T19:48:56.245Z,5.02
2022-11-26T19:51:24.640Z,4.75
2022-11-26T19:53:52.980Z,4.66
2022-11-26T19:56:22.820Z,4.55
2022-11-26T19:58:51.020Z,4.50
2022-11-26T20:01:18.192Z,4.35
2022-11-26T20:03:44.926Z,4.27
2022-11-26T20:06:24.080Z,4.16
2022-11-26T20:08:50.509Z,4.10
2022-11-26T20:11:18.464Z,4.10
2022-11-26T20:13:47.074Z,4.07
2022-11-26T20:16:17.608Z,4.03
2022-11-26T20:18:44.565Z,4.08
2022-11-26T20:21:14.145Z,4.03
2022-11-26T20:23:40.669Z,4.04
2022-11-26T20:26:17.454Z,4.01
2022-11-26T20:28:44.626Z,3.98
2022-11-26T20:31:13.389Z,3.96
2022-11-26T20:33:40.638Z,3.96
2022-11-26T20:36:09.145Z,3.94
2022-11-26T20:38:36.473Z,3.86
2022-11-26T20:41:10.645Z,3.86
2022-11-26T20:43:37.633Z,3.84
2022-11-26T20:46:07.285Z,3.87
2022-11-26T20:48:35.457Z,3.83
2022-11-26T20:51:04.172Z,3.73
2022-11-26T20:53:31.638Z,3.71
2022-11-26T20:55:58.426Z,3.69
2022-11-26T20:58:26.704Z,3.74
2022-11-26T21:00:54.995Z,3.79
2022-11-26T21:03:22.798Z,3.76
2022-11-26T21:05:51.055Z,3.75
2022-11-26T21:08:19.261Z,3.80
2022-11-26T21:10:45.778Z,3.73
2022-11-26T21:13:18.052Z,3.80
2022-11-26T21:15:47.360Z,3.82
2022-11-26T21:18:14.419Z,3.82
2022-11-26T21:20:42.066Z,3.80
2022-11-26T21:23:10.496Z,3.84
2022-11-26T21:25:38.504Z,3.81
2022-11-26T21:28:05.989Z,3.87
2022-11-26T21:30:33.410Z,3.85
2022-11-26T21:33:02.189Z,3.78
2022-11-26T21:35:32.576Z,3.84
2022-11-26T21:37:59.334Z,3.89
2022-11-26T21:40:28.066Z,3.73
2022-11-26T21:42:54.596Z,3.79
2022-11-26T21:45:21.145Z,3.73
2022-11-26T21:47:50.563Z,3.75
2022-11-26T21:50:18.731Z,3.77
2022-11-26T21:52:45.379Z,3.78
2022-11-26T21:55:12.100Z,3.72
2022-11-26T21:57:38.541Z,3.80
2022-11-26T22:00:05.906Z,3.79
2022-11-26T22:02:32.441Z,3.76
2022-11-26T22:04:58.935Z,3.74
2022-11-26T22:07:25.723Z,3.77
2022-11-26T22:09:52.394Z,3.74
2022-11-26T22:12:18.821Z,3.75
2022-11-26T22:14:45.288Z,3.72
2022-11-26T22:17:11.799Z,3.69
2022-11-26T22:19:38.616Z,3.68
2022-11-26T22:22:05.194Z,3.69
2022-11-26T22:24:31.682Z,3.74
2022-11-26T22:26:59.246Z,3.76
2022-11-26T22:29:25.740Z,3.66
2022-11-26T22:31:52.227Z,3.66
2022-11-26T22:34:22.084Z,3.65
2022-11-26T22:36:49.206Z,3.68
2022-11-26T22:39:17.531Z,3.59
2022-11-26T22:41:45.401Z,3.51
2022-11-26T22:44:13.361Z,3.54
2022-11-26T22:46:39.938Z,3.48
2022-11-26T22:49:12.441Z,3.51
2022-11-26T22:51:39.076Z,3.48
2022-11-26T22:54:07.428Z,3.48
2022-11-26T22:56:36.793Z,3.47
2022-11-26T22:59:03.996Z,3.43
2022-11-26T23:01:33.220Z,3.46
2022-11-26T23:04:02.161Z,3.43
2022-11-26T23:06:30.675Z,3.37
2022-11-26T23:08:58.195Z,3.41
2022-11-26T23:11:33.283Z,3.38
2022-11-26T23:14:03.065Z,3.35
2022-11-26T23:16:29.645Z,3.33
2022-11-26T23:18:57.137Z,3.33
2022-11-26T23:21:30.048Z,3.42
2022-11-26T23:23:57.308Z,3.33
2022-11-26T23:26:27.769Z,3.30
2022-11-26T23:28:56.139Z,3.27
2022-11-26T23:31:25.381Z,3.18
2022-11-26T23:33:52.663Z,3.18
2022-11-26T23:36:20.404Z,3.26
2022-11-26T23:38:47.139Z,3.28
2022-11-26T23:41:14.581Z,3.28
2022-11-26T23:43:41.205Z,3.28
2022-11-26T23:46:18.732Z,3.23
2022-11-26T23:48:46.068Z,3.27
2022-11-26T23:51:15.967Z,3.24
2022-11-26T23:53:45.232Z,3.28
2022-11-26T23:56:18.795Z,3.35
2022-11-26T23:58:49.418Z,3.35
